Time;durP1;ratioP1;P1;durP2;ratioP2;P2;SDS_P1;SDS_P2;PMS_P1;PMS_P2;Temp;Humidity;BMP_temperature;BMP_pressure;BME280_temperature;BME280_humidity;BME280_pressure;Samples;Min_cycle;Max_cycle;Signal;HPM_P1;HPM_P2
2022/11/13 00:01:13;;;;;;;4.97;2.13;;;8.00;99.90;;;;;;4993596;28;20293;-65
2022/11/13 00:03:40;;;;;;;3.60;2.27;;;7.90;99.90;;;;;;4990716;28;20206;-65
2022/11/13 00:06:10;;;;;;;2.20;2.10;;;7.90;99.90;;;;;;4995587;28;20253;-65
2022/11/13 00:08:36;;;;;;;2.70;2.50;;;7.90;99.90;;;;;;4993597;28;20297;-64
2022/11/13 00:11:05;;;;;;;1.83;1.73;;;7.90;99.90;;;;;;4992721;28;20301;-65
2022/11/13 00:13:33;;;;;;;1.90;1.80;;;7.90;99.90;;;;;;4989532;28;20210;-65
2022/11/13 00:16:01;;;;;;;2.00;1.90;;;7.80;99.90;;;;;;4990274;28;20233;-65
2022/11/13 00:18:29;;;;;;;2.13;2.03;;;7.80;99.90;;;;;;4988472;28;20360;-65
2022/11/13 00:20:56;;;;;;;1.80;1.70;;;7.80;99.90;;;;;;4993360;28;20202;-65
2022/11/13 00:23:24;;;;;;;2.13;1.87;;;7.80;99.90;;;;;;4985652;28;20226;-64
2022/11/13 00:25:51;;;;;;;1.50;1.40;;;7.70;99.90;;;;;;4989531;28;20234;-63
2022/11/13 00:28:18;;;;;;;1.77;1.67;;;7.60;99.90;;;;;;4993792;28;20216;-65
2022/11/13 00:30:45;;;;;;;1.80;1.70;;;7.60;99.90;;;;;;4990603;28;20206;-65
2022/11/13 00:33:11;;;;;;;1.70;1.60;;;7.50;99.90;;;;;;4992928;28;20289;-64
2022/11/13 00:35:38;;;;;;;1.47;1.40;;;7.50;99.90;;;;;;4989750;28;20222;-64
2022/11/13 00:38:05;;;;;;;1.47;1.37;;;7.40;99.90;;;;;;4993541;28;20205;-64
2022/11/13 00:40:33;;;;;;;1.30;1.30;;;7.40;99.90;;;;;;4993458;28;20221;-64
2022/11/13 00:43:00;;;;;;;1.40;1.40;;;7.40;99.90;;;;;;4989864;28;20202;-65
2022/11/13 00:45:27;;;;;;;1.20;1.20;;;7.50;99.90;;;;;;4986471;28;20739;-64
2022/11/13 00:47:54;;;;;;;1.27;1.27;;;7.50;99.90;;;;;;4992926;28;20289;-64
2022/11/13 00:50:20;;;;;;;1.23;1.23;;;7.50;99.90;;;;;;4993778;28;20653;-64
2022/11/13 00:52:47;;;;;;;1.57;1.53;;;7.50;99.90;;;;;;4993795;28;20206;-64
2022/11/13 00:55:14;;;;;;;1.30;1.30;;;7.50;99.90;;;;;;4995865;28;20222;-65
2022/11/13 00:57:42;;;;;;;1.10;1.10;;;7.50;99.90;;;;;;4985759;28;20232;-64
2022/11/13 01:00:11;;;;;;;1.10;1.10;;;7.50;99.90;;;;;;4987332;28;20210;-64
2022/11/13 01:02:37;;;;;;;1.20;1.20;;;7.40;99.90;;;;;;4992443;28;20210;-64
2022/11/13 01:05:05;;;;;;;1.23;1.23;;;7.40;99.90;;;;;;4991942;28;20230;-64
2022/11/13 01:07:32;;;;;;;1.20;1.20;;;7.40;99.90;;;;;;4992169;28;20198;-65
2022/11/13 01:09:58;;;;;;;1.27;1.27;;;7.40;99.90;;;;;;4993431;28;20210;-65
2022/11/13 01:12:25;;;;;;;1.60;1.50;;;7.40;99.90;;;;;;4989449;28;20206;-64
2022/11/13 01:14:53;;;;;;;1.60;1.50;;;7.40;99.90;;;;;;4989226;28;20321;-64
2022/11/13 01:17:20;;;;;;;1.30;1.20;;;7.40;99.90;;;;;;4993956;28;20218;-63
2022/11/13 01:19:47;;;;;;;1.23;1.17;;;7.40;99.90;;;;;;5002086;28;20216;-64
2022/11/13 01:22:15;;;;;;;1.27;1.23;;;7.40;99.90;;;;;;4992432;28;20216;-64
2022/11/13 01:24:41;;;;;;;1.20;1.20;;;7.40;99.90;;;;;;4996695;28;20261;-64
2022/11/13 01:27:08;;;;;;;1.20;1.20;;;7.50;99.90;;;;;;4994192;28;20605;-64
2022/11/13 01:29:37;;;;;;;1.57;1.40;;;7.50;99.90;;;;;;4991225;28;20293;-64
2022/11/13 01:32:05;;;;;;;1.00;1.00;;;7.60;99.90;;;;;;4988528;28;20213;-64
2022/11/13 01:34:32;;;;;;;1.13;1.13;;;7.60;99.90;;;;;;4994636;28;20304;-65
2022/11/13 01:36:59;;;;;;;0.90;0.90;;;7.50;99.90;;;;;;4994738;28;20232;-64
2022/11/13 01:39:26;;;;;;;1.30;1.30;;;7.50;99.90;;;;;;4993196;28;20660;-66
2022/11/13 01:41:53;;;;;;;1.10;1.10;;;7.50;99.90;;;;;;4993529;28;20724;-64
2022/11/13 01:44:20;;;;;;;1.30;1.30;;;7.50;99.90;;;;;;4993508;28;20229;-65
2022/11/13 01:46:50;;;;;;;1.20;1.20;;;7.60;99.90;;;;;;4993814;28;20202;-66
2022/11/13 01:49:28;;;;;;;1.27;1.27;;;7.60;99.90;;;;;;4994331;28;20209;-65
2022/11/13 01:51:57;;;;;;;0.90;0.90;;;7.60;99.90;;;;;;5000018;28;20208;-65
2022/11/13 01:54:27;;;;;;;1.23;1.20;;;7.50;99.90;;;;;;4995514;28;20222;-65
2022/11/13 01:56:55;;;;;;;1.00;1.00;;;7.50;99.90;;;;;;5007522;28;20235;-64
2022/11/13 01:59:26;;;;;;;1.30;1.30;;;7.40;99.90;;;;;;5004699;28;20208;-65
2022/11/13 02:01:54;;;;;;;1.03;1.03;;;7.50;99.90;;;;;;4997291;28;20210;-66
2022/11/13 02:04:22;;;;;;;1.00;1.00;;;7.50;99.90;;;;;;4994017;28;20284;-65
2022/11/13 02:06:54;;;;;;;1.20;1.20;;;7.50;99.90;;;;;;4995438;28;20202;-63
2022/11/13 02:09:24;;;;;;;1.10;1.10;;;7.50;99.90;;;;;;5001993;28;20222;-65
2022/11/13 02:11:52;;;;;;;1.00;1.00;;;7.50;99.90;;;;;;4996928;28;20213;-65
2022/11/13 02:14:21;;;;;;;1.10;1.10;;;7.50;99.90;;;;;;4999582;28;20220;-65
2022/11/13 02:16:51;;;;;;;1.20;1.20;;;7.50;99.90;;;;;;4995813;28;20787;-67
2022/11/13 02:19:23;;;;;;;1.20;1.20;;;7.60;99.90;;;;;;5003325;28;20206;-65
2022/11/13 02:21:59;;;;;;;1.10;1.07;;;7.50;99.90;;;;;;5008296;28;20265;-65
2022/11/13 02:24:30;;;;;;;1.03;1.03;;;7.50;99.90;;;;;;5008610;28;20288;-64
2022/11/13 02:27:02;;;;;;;0.90;0.90;;;7.60;99.90;;;;;;5009969;28;20218;-64
2022/11/13 02:29:29;;;;;;;0.93;0.93;;;7.60;99.90;;;;;;5012172;28;20214;-64
2022/11/13 02:31:56;;;;;;;1.30;1.30;;;7.50;99.90;;;;;;5007376;28;20237;-65
2022/11/13 02:34:23;;;;;;;1.20;1.20;;;7.60;99.90;;;;;;4986214;28;20228;-65
2022/11/13 02:36:50;;;;;;;1.10;1.10;;;7.60;99.90;;;;;;4993128;28;20756;-64
2022/11/13 02:39:17;;;;;;;1.20;1.20;;;7.60;99.90;;;;;;4997613;28;20225;-65
2022/11/13 02:41:45;;;;;;;1.00;1.00;;;7.50;99.90;;;;;;4992666;28;20667;-64
2022/11/13 02:44:12;;;;;;;0.93;0.93;;;7.60;99.90;;;;;;4991724;28;20210;-65
2022/11/13 02:46:39;;;;;;;1.20;1.20;;;7.50;99.90;;;;;;4992898;28;20665;-64
2022/11/13 02:49:06;;;;;;;1.00;1.00;;;7.50;99.90;;;;;;5003701;28;20257;-64
2022/11/13 02:51:33;;;;;;;0.90;0.90;;;7.50;99.90;;;;;;4992700;28;20210;-63
2022/11/13 02:54:00;;;;;;;1.13;1.13;;;7.50;99.90;;;;;;4994498;28;20214;-66
2022/11/13 02:56:27;;;;;;;1.13;1.13;;;7.40;99.90;;;;;;4995643;28;20225;-64
2022/11/13 02:58:55;;;;;;;1.43;1.40;;;7.40;99.90;;;;;;5022249;28;20205;-65
2022/11/13 03:01:22;;;;;;;1.37;1.37;;;7.40;99.90;;;;;;4999330;28;20211;-65
2022/11/13 03:03:49;;;;;;;1.20;1.20;;;7.40;99.90;;;;;;4998861;28;20225;-64
2022/11/13 03:06:15;;;;;;;1.00;1.00;;;7.50;99.90;;;;;;4995188;28;20591;-65
2022/11/13 03:08:42;;;;;;;1.30;1.30;;;7.40;99.90;;;;;;4995051;28;20289;-65
2022/11/13 03:11:11;;;;;;;1.20;1.20;;;7.40;99.90;;;;;;4994570;28;20208;-65
2022/11/13 03:13:38;;;;;;;1.20;1.20;;;7.40;99.90;;;;;;4995595;28;20205;-64
2022/11/13 03:16:09;;;;;;;1.37;1.37;;;7.40;99.90;;;;;;4995011;28;20259;-64
2022/11/13 03:18:36;;;;;;;1.10;1.10;;;7.40;99.90;;;;;;4995216;28;20217;-65
2022/11/13 03:21:07;;;;;;;1.10;1.10;;;7.30;99.90;;;;;;4995650;28;20769;-66
2022/11/13 03:23:34;;;;;;;1.40;1.30;;;7.20;99.90;;;;;;5005779;28;20213;-65
2022/11/13 03:26:06;;;;;;;1.03;1.03;;;7.30;99.90;;;;;;5004877;28;20299;-65
2022/11/13 03:28:33;;;;;;;1.20;1.20;;;7.20;99.90;;;;;;4996122;28;20206;-65
2022/11/13 03:31:00;;;;;;;0.90;0.90;;;7.30;99.90;;;;;;4995740;28;20290;-65
2022/11/13 03:33:29;;;;;;;1.00;1.00;;;7.30;99.90;;;;;;4997384;28;20278;-65
2022/11/13 03:35:56;;;;;;;1.00;1.00;;;7.40;99.90;;;;;;4998676;28;20293;-65
2022/11/13 03:38:23;;;;;;;1.10;1.10;;;7.30;99.90;;;;;;5004277;28;20222;-64
2022/11/13 03:40:50;;;;;;;1.00;1.00;;;7.40;99.90;;;;;;5000244;28;20197;-65
2022/11/13 03:43:17;;;;;;;0.83;0.83;;;7.40;99.90;;;;;;4995714;28;20293;-65
2022/11/13 03:45:45;;;;;;;0.80;0.80;;;7.50;99.90;;;;;;4994865;28;20226;-65
2022/11/13 03:48:13;;;;;;;0.90;0.90;;;7.50;99.90;;;;;;4988438;28;20210;-65
2022/11/13 03:50:43;;;;;;;0.90;0.90;;;7.50;99.90;;;;;;5011229;28;20415;-66
2022/11/13 03:53:10;;;;;;;1.00;1.00;;;7.50;99.90;;;;;;5015038;28;20198;-66
2022/11/13 03:55:37;;;;;;;0.90;0.90;;;7.50;99.90;;;;;;4998118;28;20248;-64
2022/11/13 03:58:04;;;;;;;1.07;1.07;;;7.50;99.90;;;;;;4994578;28;20669;-66
2022/11/13 04:00:31;;;;;;;1.07;1.07;;;7.50;99.90;;;;;;4995186;28;20237;-66
2022/11/13 04:02:58;;;;;;;1.10;1.10;;;7.50;99.90;;;;;;4990288;28;20240;-64
2022/11/13 04:05:25;;;;;;;1.00;1.00;;;7.50;99.90;;;;;;4994021;28;20305;-65
2022/11/13 04:07:53;;;;;;;1.10;1.10;;;7.40;99.90;;;;;;4995596;28;20216;-66
2022/11/13 04:10:20;;;;;;;0.90;0.90;;;7.50;99.90;;;;;;4995102;28;20228;-65
2022/11/13 04:12:46;;;;;;;1.10;1.10;;;7.40;99.90;;;;;;4998682;28;20221;-65
2022/11/13 04:15:13;;;;;;;1.10;1.10;;;7.40;99.90;;;;;;4998172;28;20631;-65
2022/11/13 04:17:40;;;;;;;1.10;1.10;;;7.40;99.90;;;;;;4994427;28;20232;-66
2022/11/13 04:20:09;;;;;;;1.00;1.00;;;7.30;99.90;;;;;;4985869;28;20572;-65
2022/11/13 04:22:36;;;;;;;0.80;0.80;;;7.30;99.90;;;;;;4994143;28;20213;-65
2022/11/13 04:25:05;;;;;;;1.00;1.00;;;7.30;99.90;;;;;;4993220;28;20783;-65
2022/11/13 04:27:31;;;;;;;0.90;0.90;;;7.30;99.90;;;;;;4994206;28;20208;-64
2022/11/13 04:29:58;;;;;;;0.80;0.80;;;7.30;99.90;;;;;;4993643;28;20293;-65
2022/11/13 04:32:25;;;;;;;0.90;0.90;;;7.30;99.90;;;;;;4985902;28;20687;-63
2022/11/13 04:34:52;;;;;;;1.00;1.00;;;7.20;99.90;;;;;;4993011;28;20229;-66
2022/11/13 04:37:19;;;;;;;1.07;1.07;;;7.30;99.90;;;;;;4993666;28;20324;-64
2022/11/13 04:39:46;;;;;;;0.90;0.90;;;7.30;99.90;;;;;;4993370;28;20224;-64
2022/11/13 04:44:58;;;;;;;0.80;0.80;;;7.30;99.90;;;;;;4992442;28;20720;-65
2022/11/13 04:47:25;;;;;;;0.90;0.90;;;7.30;99.90;;;;;;4993474;28;20201;-65
2022/11/13 04:49:52;;;;;;;0.83;0.83;;;7.30;99.90;;;;;;4995556;28;20214;-65
2022/11/13 04:52:19;;;;;;;1.00;1.00;;;7.30;99.90;;;;;;4994815;28;20225;-65
2022/11/13 04:54:46;;;;;;;0.80;0.80;;;7.20;99.90;;;;;;4997998;28;20233;-66
2022/11/13 04:57:14;;;;;;;1.00;1.00;;;7.40;99.90;;;;;;5004376;28;20534;-64
2022/11/13 04:59:41;;;;;;;0.80;0.80;;;7.20;99.90;;;;;;4992881;28;20201;-64
2022/11/13 05:02:07;;;;;;;0.97;0.97;;;7.10;99.90;;;;;;4992928;28;20209;-64
2022/11/13 05:04:34;;;;;;;1.00;1.00;;;7.20;99.90;;;;;;4992575;28;20236;-63
2022/11/13 05:07:01;;;;;;;0.90;0.90;;;7.20;99.90;;;;;;4993358;28;20296;-65
2022/11/13 05:09:28;;;;;;;1.00;1.00;;;7.20;99.90;;;;;;4992495;28;20652;-66
2022/11/13 05:11:55;;;;;;;1.20;1.20;;;7.20;99.90;;;;;;4992896;28;20663;-66
2022/11/13 05:14:23;;;;;;;0.80;0.80;;;7.20;99.90;;;;;;4992982;28;20206;-64
2022/11/13 05:16:50;;;;;;;1.00;1.00;;;7.20;99.90;;;;;;4993587;28;20217;-65
2022/11/13 05:19:17;;;;;;;1.10;1.10;;;7.20;99.90;;;;;;4993851;28;20311;-64
2022/11/13 05:21:44;;;;;;;1.00;1.00;;;7.20;99.90;;;;;;5000653;28;20233;-65
2022/11/13 05:24:11;;;;;;;1.20;1.20;;;7.20;99.90;;;;;;4998827;28;20237;-65
2022/11/13 05:26:39;;;;;;;1.03;1.03;;;7.20;99.90;;;;;;5002699;28;20301;-64
2022/11/13 05:29:06;;;;;;;1.10;1.10;;;7.20;99.90;;;;;;4993173;28;20643;-65
2022/11/13 05:31:34;;;;;;;1.00;1.00;;;7.10;99.90;;;;;;4992884;28;20699;-64
2022/11/13 05:34:03;;;;;;;1.13;1.13;;;7.10;99.90;;;;;;4994878;28;20652;-64
2022/11/13 05:36:30;;;;;;;1.03;1.03;;;7.20;99.90;;;;;;4992561;28;20214;-65
2022/11/13 05:38:57;;;;;;;1.10;1.10;;;7.20;99.90;;;;;;4992613;28;20276;-64
2022/11/13 05:41:24;;;;;;;1.00;1.00;;;7.20;99.90;;;;;;4992413;28;20231;-65
2022/11/13 05:43:51;;;;;;;0.90;0.90;;;7.20;99.90;;;;;;4991957;28;20301;-63
2022/11/13 05:46:20;;;;;;;0.90;0.90;;;7.20;99.90;;;;;;4992513;28;20218;-65
2022/11/13 05:48:52;;;;;;;1.00;1.00;;;7.20;99.90;;;;;;4992746;28;20206;-66
2022/11/13 05:51:21;;;;;;;0.97;0.97;;;7.30;99.90;;;;;;4992538;28;20707;-65
2022/11/13 05:53:48;;;;;;;0.90;0.90;;;7.20;99.90;;;;;;4997193;28;20221;-63
2022/11/13 05:56:17;;;;;;;0.93;0.93;;;7.30;99.90;;;;;;4992614;28;20221;-65
2022/11/13 05:58:45;;;;;;;0.83;0.83;;;7.30;99.90;;;;;;4992053;28;20708;-66
2022/11/13 06:01:14;;;;;;;0.90;0.90;;;7.40;99.90;;;;;;4990720;28;20248;-65
2022/11/13 06:03:42;;;;;;;1.07;1.07;;;7.30;99.90;;;;;;4992201;28;20297;-64
2022/11/13 06:06:11;;;;;;;1.00;1.00;;;7.30;99.90;;;;;;4998564;28;20253;-65
2022/11/13 06:08:39;;;;;;;0.97;0.97;;;7.30;99.90;;;;;;4996269;28;20602;-64
2022/11/13 06:11:07;;;;;;;1.00;1.00;;;7.30;99.90;;;;;;4996060;28;20590;-63
2022/11/13 06:13:34;;;;;;;1.20;1.20;;;7.30;99.90;;;;;;5001420;28;20233;-64
2022/11/13 06:16:02;;;;;;;1.10;1.10;;;7.30;99.90;;;;;;4998190;28;20284;-65
2022/11/13 06:18:29;;;;;;;1.03;1.03;;;7.30;99.90;;;;;;4997008;28;20291;-66
2022/11/13 06:21:00;;;;;;;1.00;1.00;;;7.30;99.90;;;;;;4995433;28;20210;-63
2022/11/13 06:23:29;;;;;;;1.10;1.10;;;7.40;99.90;;;;;;4996323;28;20679;-64
2022/11/13 06:26:00;;;;;;;0.90;0.90;;;7.40;99.90;;;;;;4994892;28;20321;-64
2022/11/13 06:28:27;;;;;;;1.00;1.00;;;7.40;99.90;;;;;;4994460;28;20229;-65
2022/11/13 06:30:54;;;;;;;0.90;0.90;;;7.40;99.90;;;;;;4997859;28;20293;-64
2022/11/13 06:33:21;;;;;;;0.90;0.90;;;7.40;99.90;;;;;;4998153;28;20394;-64
2022/11/13 06:35:48;;;;;;;0.90;0.90;;;7.30;99.90;;;;;;4992807;28;20285;-64
2022/11/13 06:38:14;;;;;;;0.90;0.90;;;7.30;99.90;;;;;;4996160;28;20285;-65
2022/11/13 06:40:43;;;;;;;1.20;1.20;;;7.40;99.90;;;;;;4996276;28;20208;-64
2022/11/13 06:43:09;;;;;;;1.00;1.00;;;7.30;99.90;;;;;;4996390;28;20206;-65
2022/11/13 06:45:36;;;;;;;0.87;0.87;;;7.30;99.90;;;;;;4996652;28;20236;-65
2022/11/13 06:48:03;;;;;;;0.90;0.90;;;7.30;99.90;;;;;;4995860;28;20248;-64
2022/11/13 06:50:30;;;;;;;0.80;0.80;;;7.30;99.90;;;;;;5006420;28;20233;-65
2022/11/13 06:52:57;;;;;;;0.90;0.90;;;7.30;99.90;;;;;;4999577;28;20210;-64
2022/11/13 06:55:24;;;;;;;0.90;0.90;;;7.30;99.90;;;;;;4996140;28;20575;-66
2022/11/13 06:57:53;;;;;;;0.90;0.90;;;7.30;99.90;;;;;;4997581;28;20229;-65
2022/11/13 07:00:20;;;;;;;0.90;0.90;;;7.20;99.90;;;;;;5004017;28;20244;-65
2022/11/13 07:02:48;;;;;;;0.87;0.87;;;7.20;99.90;;;;;;5005849;28;20222;-64
2022/11/13 07:05:16;;;;;;;0.90;0.90;;;7.30;99.90;;;;;;5006470;28;20229;-65
2022/11/13 07:07:43;;;;;;;0.90;0.90;;;7.30;99.90;;;;;;5004787;28;20329;-66
2022/11/13 07:10:10;;;;;;;1.00;1.00;;;7.30;99.90;;;;;;4998746;28;20682;-64
2022/11/13 07:12:37;;;;;;;0.90;0.90;;;7.40;99.90;;;;;;5004406;28;20238;-66
2022/11/13 07:15:06;;;;;;;1.07;1.07;;;7.40;99.90;;;;;;5006774;28;20217;-64
2022/11/13 07:17:33;;;;;;;1.20;1.20;;;7.40;99.90;;;;;;5011275;28;20262;-66
2022/11/13 07:19:59;;;;;;;1.10;1.10;;;7.40;99.90;;;;;;5000869;28;20229;-64
2022/11/13 07:22:28;;;;;;;1.00;1.00;;;7.40;99.90;;;;;;4997005;28;20206;-64
2022/11/13 07:24:55;;;;;;;1.20;1.20;;;7.50;99.90;;;;;;4996182;28;20238;-65
2022/11/13 07:27:22;;;;;;;0.90;0.90;;;7.40;99.90;;;;;;4993753;28;20226;-64
2022/11/13 07:29:49;;;;;;;0.97;0.97;;;7.40;99.90;;;;;;4985531;28;20234;-64
2022/11/13 07:32:17;;;;;;;1.40;1.40;;;7.40;99.90;;;;;;4994901;28;20297;-64
2022/11/13 07:34:44;;;;;;;1.20;1.20;;;7.40;99.90;;;;;;4987084;28;20314;-65
2022/11/13 07:37:11;;;;;;;1.23;1.23;;;7.40;99.90;;;;;;4994926;28;20285;-66
2022/11/13 07:39:38;;;;;;;1.20;1.20;;;7.40;99.90;;;;;;4996504;28;20249;-65
2022/11/13 07:42:05;;;;;;;1.10;1.10;;;7.40;99.90;;;;;;4996633;28;20212;-66
2022/11/13 07:44:32;;;;;;;1.30;1.30;;;7.40;99.90;;;;;;4992762;28;20280;-65
2022/11/13 07:46:59;;;;;;;1.50;1.40;;;7.40;99.90;;;;;;4994501;28;20234;-66
2022/11/13 07:49:27;;;;;;;1.30;1.30;;;7.50;99.90;;;;;;4996394;28;20209;-65
2022/11/13 07:51:54;;;;;;;1.50;1.50;;;7.50;99.90;;;;;;4995455;28;20210;-66
2022/11/13 07:54:21;;;;;;;1.43;1.43;;;7.50;99.90;;;;;;4996349;28;20220;-65
2022/11/13 07:56:47;;;;;;;1.40;1.40;;;7.50;99.90;;;;;;4994671;28;20253;-65
2022/11/13 07:59:14;;;;;;;1.80;1.70;;;7.50;99.90;;;;;;4994968;28;20306;-64
2022/11/13 08:01:42;;;;;;;1.63;1.63;;;7.60;99.90;;;;;;4994762;28;20210;-64
2022/11/13 08:04:08;;;;;;;1.60;1.50;;;7.60;99.90;;;;;;4994685;28;20205;-65
2022/11/13 08:06:38;;;;;;;1.70;1.60;;;7.60;99.90;;;;;;4990155;28;20248;-65
2022/11/13 08:09:05;;;;;;;1.50;1.40;;;7.70;99.90;;;;;;4995829;28;20202;-65
2022/11/13 08:11:32;;;;;;;1.63;1.57;;;7.70;99.90;;;;;;4991678;28;20206;-65
2022/11/13 08:13:59;;;;;;;1.67;1.60;;;7.70;99.90;;;;;;4996365;28;20273;-65
2022/11/13 08:16:26;;;;;;;1.20;1.20;;;7.70;99.90;;;;;;4998845;28;20316;-66
2022/11/13 08:18:53;;;;;;;1.87;1.77;;;7.70;99.90;;;;;;4999420;28;20641;-66
2022/11/13 08:21:21;;;;;;;1.80;1.70;;;7.70;99.90;;;;;;5006664;28;20653;-66
2022/11/13 08:23:50;;;;;;;1.70;1.60;;;7.50;99.90;;;;;;4997823;28;20297;-62
2022/11/13 08:26:17;;;;;;;1.57;1.53;;;7.40;99.90;;;;;;5005090;28;20234;-66
2022/11/13 08:28:45;;;;;;;1.57;1.50;;;7.40;99.90;;;;;;4999255;28;20203;-66
2022/11/13 08:31:13;;;;;;;1.60;1.50;;;7.50;99.90;;;;;;4989640;28;20289;-66
2022/11/13 08:33:41;;;;;;;1.70;1.60;;;7.40;99.90;;;;;;5003267;28;20641;-68
2022/11/13 08:36:09;;;;;;;1.60;1.60;;;7.30;99.90;;;;;;5006722;28;20359;-65
2022/11/13 08:38:36;;;;;;;1.90;1.80;;;7.20;99.90;;;;;;5004848;28;20396;-65
2022/11/13 08:41:05;;;;;;;1.80;1.70;;;7.20;99.90;;;;;;4999637;28;20289;-66
2022/11/13 08:43:32;;;;;;;1.73;1.63;;;7.20;99.90;;;;;;5011416;28;20292;-65
2022/11/13 08:45:59;;;;;;;1.77;1.67;;;7.10;99.90;;;;;;5004284;28;20260;-66
2022/11/13 08:48:26;;;;;;;1.80;1.70;;;7.10;99.90;;;;;;4998307;28;20272;-66
2022/11/13 08:50:54;;;;;;;2.17;2.07;;;7.10;99.90;;;;;;5004373;28;20201;-65
2022/11/13 08:53:21;;;;;;;1.47;1.47;;;7.10;99.90;;;;;;5007611;28;20209;-67
2022/11/13 08:55:48;;;;;;;1.90;1.80;;;7.20;99.90;;;;;;4998712;28;20428;-65
2022/11/13 08:58:16;;;;;;;1.97;1.87;;;7.20;99.90;;;;;;4997273;28;20256;-66
2022/11/13 09:00:43;;;;;;;1.70;1.60;;;7.20;99.90;;;;;;4996717;28;20229;-66
2022/11/13 09:03:12;;;;;;;1.90;1.80;;;7.20;99.90;;;;;;4995616;28;20553;-65
2022/11/13 09:05:38;;;;;;;1.87;1.77;;;7.20;99.90;;;;;;4996053;28;20238;-64
2022/11/13 09:08:06;;;;;;;1.70;1.60;;;7.20;99.90;;;;;;4996523;28;20197;-64
2022/11/13 09:10:33;;;;;;;1.80;1.70;;;7.30;99.90;;;;;;4995193;28;20213;-64
2022/11/13 09:13:01;;;;;;;1.70;1.60;;;7.20;99.90;;;;;;4991106;28;20699;-66
2022/11/13 09:15:33;;;;;;;2.00;1.90;;;7.10;99.90;;;;;;4988492;28;20229;-65
2022/11/13 09:18:00;;;;;;;1.73;1.67;;;7.00;99.90;;;;;;4993336;28;20265;-66
2022/11/13 09:20:28;;;;;;;2.00;1.90;;;7.10;99.90;;;;;;4994726;28;20308;-66
2022/11/13 09:22:58;;;;;;;1.87;1.77;;;7.20;99.90;;;;;;4993915;28;20206;-65
2022/11/13 09:25:26;;;;;;;2.20;2.10;;;7.20;99.90;;;;;;4992831;28;20229;-64
2022/11/13 09:27:54;;;;;;;2.10;2.00;;;7.30;99.90;;;;;;4994316;28;20245;-65
2022/11/13 09:30:22;;;;;;;2.20;2.10;;;7.30;99.90;;;;;;4994030;28;20198;-65
2022/11/13 09:32:53;;;;;;;1.63;1.60;;;7.20;99.90;;;;;;5002426;28;20209;-64
2022/11/13 09:35:32;;;;;;;1.60;1.60;;;7.20;99.90;;;;;;4988617;28;20711;-65
2022/11/13 09:37:59;;;;;;;1.73;1.63;;;7.10;99.90;;;;;;4993790;28;20201;-64
2022/11/13 09:40:30;;;;;;;1.50;1.50;;;7.40;99.90;;;;;;4988013;28;20595;-66
2022/11/13 09:42:58;;;;;;;1.60;1.60;;;7.50;99.90;;;;;;4993504;28;20233;-66
2022/11/13 09:45:25;;;;;;;1.50;1.50;;;7.50;99.90;;;;;;4988871;28;20232;-65
2022/11/13 09:47:56;;;;;;;1.50;1.50;;;7.20;99.90;;;;;;5001123;28;20201;-64
2022/11/13 09:50:26;;;;;;;2.20;2.10;;;7.20;99.90;;;;;;4994413;28;20610;-65
2022/11/13 09:52:54;;;;;;;1.73;1.63;;;7.40;99.90;;;;;;4993604;28;20198;-65
2022/11/13 09:55:28;;;;;;;1.67;1.60;;;7.40;99.90;;;;;;4992479;28;20226;-64
2022/11/13 09:58:02;;;;;;;1.50;1.50;;;7.40;99.90;;;;;;4997334;28;20261;-65
2022/11/13 10:00:32;;;;;;;1.80;1.70;;;7.50;99.90;;;;;;5006514;28;20608;-65
2022/11/13 10:03:23;;;;;;;1.40;1.40;;;7.60;99.90;;;;;;5004198;28;20229;-65
2022/11/13 10:05:58;;;;;;;1.67;1.57;;;7.70;99.90;;;;;;5002627;28;20226;-65
2022/11/13 10:08:29;;;;;;;1.43;1.43;;;7.80;99.90;;;;;;4999170;28;20288;-67
2022/11/13 10:11:05;;;;;;;1.60;1.50;;;7.90;99.90;;;;;;4998602;28;20241;-65
2022/11/13 10:13:38;;;;;;;1.60;1.50;;;8.00;99.90;;;;;;5007840;28;20220;-70
2022/11/13 10:16:14;;;;;;;1.67;1.57;;;8.10;99.90;;;;;;5008567;28;20289;-65
2022/11/13 10:18:44;;;;;;;1.60;1.50;;;8.10;99.90;;;;;;5006497;28;20296;-64
2022/11/13 10:21:19;;;;;;;1.43;1.43;;;8.00;99.90;;;;;;5006410;28;20194;-66
2022/11/13 10:23:54;;;;;;;1.60;1.60;;;8.00;99.90;;;;;;5014801;28;20235;-65
2022/11/13 10:26:24;;;;;;;1.50;1.50;;;7.80;99.90;;;;;;5022542;28;20312;-63
2022/11/13 10:29:10;;;;;;;1.67;1.57;;;7.90;99.90;;;;;;5017815;28;20203;-65
2022/11/13 10:31:47;;;;;;;1.80;1.70;;;8.10;99.90;;;;;;5016248;28;20212;-65
2022/11/13 10:34:17;;;;;;;1.80;1.70;;;8.00;99.90;;;;;;5002475;28;20645;-64
2022/11/13 10:36:57;;;;;;;1.40;1.40;;;7.80;99.90;;;;;;4999234;28;20218;-65
2022/11/13 10:39:24;;;;;;;1.50;1.50;;;8.00;99.90;;;;;;4995468;28;20293;-65
2022/11/13 10:41:53;;;;;;;1.90;1.80;;;8.00;99.90;;;;;;5008863;28;20210;-64
2022/11/13 10:44:28;;;;;;;1.50;1.50;;;8.00;99.90;;;;;;4990390;28;20696;-67
2022/11/13 10:47:05;;;;;;;1.70;1.60;;;7.90;99.90;;;;;;5001725;28;20388;-65
2022/11/13 10:49:33;;;;;;;2.00;1.90;;;7.80;99.90;;;;;;4999019;28;20270;-65
2022/11/13 10:52:02;;;;;;;1.80;1.70;;;7.70;99.90;;;;;;5000284;28;20308;-65
2022/11/13 10:54:31;;;;;;;1.63;1.60;;;7.70;99.90;;;;;;4995790;28;20232;-65
2022/11/13 10:57:00;;;;;;;1.90;1.80;;;7.60;99.90;;;;;;4997996;28;20233;-66
2022/11/13 10:59:39;;;;;;;1.70;1.60;;;7.60;99.90;;;;;;4998474;28;20253;-65
2022/11/13 11:02:16;;;;;;;1.80;1.70;;;7.80;99.90;;;;;;4990614;28;20260;-64
2022/11/13 11:04:44;;;;;;;1.70;1.60;;;7.90;99.90;;;;;;4988422;28;20313;-64
2022/11/13 11:07:15;;;;;;;1.33;1.33;;;7.80;99.90;;;;;;4990197;28;20233;-64
2022/11/13 11:09:45;;;;;;;1.90;1.80;;;7.80;99.90;;;;;;4991522;28;20205;-65
2022/11/13 11:12:17;;;;;;;1.77;1.67;;;7.90;99.90;;;;;;4992560;28;20214;-64
2022/11/13 11:14:57;;;;;;;1.90;1.80;;;8.00;99.90;;;;;;5001696;28;20229;-65
2022/11/13 11:17:29;;;;;;;1.93;1.83;;;8.00;99.90;;;;;;4987864;28;20198;-63
2022/11/13 11:20:03;;;;;;;1.97;1.87;;;7.70;99.90;;;;;;4989508;28;20236;-64
2022/11/13 11:22:34;;;;;;;2.07;1.97;;;7.60;99.90;;;;;;5000841;28;20344;-65
2022/11/13 11:25:09;;;;;;;1.73;1.70;;;7.50;99.90;;;;;;4988738;28;20237;-65
2022/11/13 11:27:41;;;;;;;1.80;1.70;;;7.70;99.90;;;;;;4985488;28;20203;-65
2022/11/13 11:30:17;;;;;;;2.00;1.90;;;7.80;99.90;;;;;;4998886;28;20194;-64
2022/11/13 11:32:48;;;;;;;1.50;1.50;;;7.80;99.90;;;;;;4987296;28;20285;-64
2022/11/13 11:35:20;;;;;;;1.80;1.70;;;7.80;99.90;;;;;;4989071;28;20289;-63
2022/11/13 11:37:53;;;;;;;1.50;1.50;;;7.90;99.90;;;;;;4985664;28;20306;-64
2022/11/13 11:40:27;;;;;;;1.60;1.60;;;7.90;99.90;;;;;;4985343;28;20316;-65
2022/11/13 11:43:00;;;;;;;1.60;1.60;;;7.80;99.90;;;;;;4992766;28;20289;-63
2022/11/13 11:45:30;;;;;;;1.77;1.67;;;7.90;99.90;;;;;;4989128;28;20261;-65
2022/11/13 11:48:00;;;;;;;2.00;1.90;;;7.90;99.90;;;;;;4985199;28;20198;-65
2022/11/13 11:50:36;;;;;;;1.90;1.80;;;7.80;99.90;;;;;;4987673;28;20203;-64
2022/11/13 11:53:13;;;;;;;1.93;1.83;;;7.80;99.90;;;;;;4990293;28;20206;-65
2022/11/13 11:56:03;;;;;;;1.90;1.80;;;7.70;99.90;;;;;;4987979;28;20230;-64
2022/11/13 11:59:02;;;;;;;1.90;1.80;;;7.70;99.90;;;;;;4984390;28;20214;-65
2022/11/13 12:01:42;;;;;;;1.80;1.70;;;7.70;99.90;;;;;;4983074;28;20305;-64
2022/11/13 12:04:29;;;;;;;1.80;1.70;;;7.80;99.90;;;;;;4986336;28;20232;-63
2022/11/13 12:07:13;;;;;;;1.90;1.80;;;8.00;99.90;;;;;;4995581;28;20274;-65
2022/11/13 12:09:46;;;;;;;1.80;1.70;;;8.00;99.90;;;;;;4989591;28;20206;-65
2022/11/13 12:12:21;;;;;;;2.00;1.90;;;8.10;99.90;;;;;;4987353;28;20237;-64
2022/11/13 12:14:59;;;;;;;1.97;1.87;;;8.20;99.90;;;;;;4994356;28;20308;-63
2022/11/13 12:17:40;;;;;;;1.80;1.70;;;8.20;99.90;;;;;;4994207;28;20205;-64
2022/11/13 12:20:18;;;;;;;1.83;1.73;;;8.10;99.90;;;;;;4995056;28;20253;-65
2022/11/13 12:22:53;;;;;;;1.90;1.80;;;8.10;99.90;;;;;;4993540;28;20285;-64
2022/11/13 12:25:27;;;;;;;1.70;1.60;;;8.20;99.90;;;;;;4995652;28;20316;-65
2022/11/13 12:27:59;;;;;;;1.80;1.70;;;8.20;99.90;;;;;;4993852;28;20201;-66
2022/11/13 12:30:36;;;;;;;2.20;2.10;;;8.30;99.90;;;;;;4993461;28;20205;-65
2022/11/13 12:33:21;;;;;;;2.20;2.10;;;8.10;99.90;;;;;;4994507;28;20209;-65
2022/11/13 12:35:52;;;;;;;2.00;1.90;;;8.10;99.90;;;;;;4995248;28;20284;-65
2022/11/13 12:38:31;;;;;;;2.20;2.10;;;8.10;99.90;;;;;;4989425;28;20212;-65
2022/11/13 12:41:07;;;;;;;2.17;2.07;;;8.30;99.90;;;;;;4990302;28;20210;-64
2022/11/13 12:43:51;;;;;;;2.03;1.93;;;8.10;99.90;;;;;;4988673;28;20212;-65
2022/11/13 12:46:18;;;;;;;2.20;2.10;;;7.90;99.90;;;;;;4985419;28;20225;-64
2022/11/13 12:48:46;;;;;;;2.00;1.90;;;8.10;99.90;;;;;;4989832;28;20210;-64
2022/11/13 12:51:15;;;;;;;2.20;2.10;;;8.30;99.90;;;;;;4989849;28;20206;-65
2022/11/13 12:53:48;;;;;;;2.20;2.10;;;8.30;99.90;;;;;;4989888;28;20198;-66
2022/11/13 12:56:17;;;;;;;2.20;2.10;;;8.30;99.90;;;;;;4991479;28;20221;-64
2022/11/13 12:58:54;;;;;;;2.10;2.00;;;8.40;99.90;;;;;;4994911;28;20206;-65
2022/11/13 13:01:22;;;;;;;2.20;2.10;;;8.20;99.90;;;;;;4993874;28;20213;-65
2022/11/13 13:04:18;;;;;;;2.10;2.00;;;8.20;99.90;;;;;;4994840;28;20202;-65
2022/11/13 13:06:59;;;;;;;2.10;2.00;;;8.30;99.90;;;;;;4994872;28;20615;-63
2022/11/13 13:09:41;;;;;;;2.13;2.03;;;8.20;99.90;;;;;;4998186;28;20301;-64
2022/11/13 13:12:17;;;;;;;2.47;2.37;;;8.40;99.90;;;;;;4991931;28;20229;-66